sensor_id;sensor_type;location;lat;lon;timestamp;temperature;humidity
25410;DHT22;13339;50.840;4.346;2022-08-01T00:01:00;23.20;99.90
25410;DHT22;13339;50.840;4.346;2022-08-01T00:03:25;23.20;99.90
25410;DHT22;13339;50.840;4.346;2022-08-01T00:05:51;23.20;99.90
25410;DHT22;13339;50.840;4.346;2022-08-01T00:08:17;23.20;99.90
25410;DHT22;13339;50.840;4.346;2022-08-01T00:10:42;23.10;99.90
25410;DHT22;13339;50.840;4.346;2022-08-01T00:13:08;23.20;99.90
25410;DHT22;13339;50.840;4.346;2022-08-01T00:15:34;23.20;99.90
25410;DHT22;13339;50.840;4.346;2022-08-01T00:18:00;23.30;99.90
25410;DHT22;13339;50.840;4.346;2022-08-01T00:20:26;23.30;99.90
25410;DHT22;13339;50.840;4.346;2022-08-01T00:22:52;23.30;99.90
25410;DHT22;13339;50.840;4.346;2022-08-01T00:25:17;23.30;99.90
25410;DHT22;13339;50.840;4.346;2022-08-01T00:27:43;23.30;99.90
25410;DHT22;13339;50.840;4.346;2022-08-01T00:30:09;23.20;99.90
25410;DHT22;13339;50.840;4.346;2022-08-01T00:32:34;23.10;99.90
25410;DHT22;13339;50.840;4.346;2022-08-01T00:35:00;23.10;99.90
25410;DHT22;13339;50.840;4.346;2022-08-01T00:37:26;23.20;99.90
25410;DHT22;13339;50.840;4.346;2022-08-01T00:39:51;23.30;99.90
25410;DHT22;13339;50.840;4.346;2022-08-01T00:42:17;23.20;99.90
25410;DHT22;13339;50.840;4.346;2022-08-01T00:44:42;23.10;99.90
25410;DHT22;13339;50.840;4.346;2022-08-01T00:47:08;23.00;99.90
25410;DHT22;13339;50.840;4.346;2022-08-01T00:49:34;23.10;99.90
25410;DHT22;13339;50.840;4.346;2022-08-01T00:52:00;23.10;99.90
25410;DHT22;13339;50.840;4.346;2022-08-01T00:54:27;23.10;99.90
25410;DHT22;13339;50.840;4.346;2022-08-01T00:56:54;23.10;99.90
25410;DHT22;13339;50.840;4.346;2022-08-01T00:59:22;23.00;99.90
25410;DHT22;13339;50.840;4.346;2022-08-01T01:01:48;23.10;99.90
25410;DHT22;13339;50.840;4.346;2022-08-01T01:04:14;23.10;99.90
25410;DHT22;13339;50.840;4.346;2022-08-01T01:12:27;23.00;99.90
25410;DHT22;13339;50.840;4.346;2022-08-01T01:17:57;23.00;99.90
25410;DHT22;13339;50.840;4.346;2022-08-01T01:20:33;23.00;99.90
25410;DHT22;13339;50.840;4.346;2022-08-01T01:25:50;22.90;99.90
25410;DHT22;13339;50.840;4.346;2022-08-01T01:31:06;22.90;99.90
25410;DHT22;13339;50.840;4.346;2022-08-01T01:33:34;22.80;99.90
25410;DHT22;13339;50.840;4.346;2022-08-01T01:36:05;22.70;99.90
25410;DHT22;13339;50.840;4.346;2022-08-01T01:38:36;22.70;99.90
25410;DHT22;13339;50.840;4.346;2022-08-01T01:41:02;22.60;99.90
25410;DHT22;13339;50.840;4.346;2022-08-01T01:43:29;22.50;99.90
25410;DHT22;13339;50.840;4.346;2022-08-01T01:45:57;22.40;99.90
25410;DHT22;13339;50.840;4.346;2022-08-01T01:48:23;22.40;99.90
25410;DHT22;13339;50.840;4.346;2022-08-01T01:50:50;22.50;99.90
25410;DHT22;13339;50.840;4.346;2022-08-01T01:53:19;22.50;99.90
25410;DHT22;13339;50.840;4.346;2022-08-01T01:55:47;22.60;99.90
25410;DHT22;13339;50.840;4.346;2022-08-01T01:58:14;22.70;99.90
25410;DHT22;13339;50.840;4.346;2022-08-01T02:00:44;22.70;99.90
25410;DHT22;13339;50.840;4.346;2022-08-01T02:03:11;22.70;99.90
25410;DHT22;13339;50.840;4.346;2022-08-01T02:05:38;22.60;99.90
25410;DHT22;13339;50.840;4.346;2022-08-01T02:08:05;22.60;99.90
25410;DHT22;13339;50.840;4.346;2022-08-01T02:10:34;22.60;99.90
25410;DHT22;13339;50.840;4.346;2022-08-01T02:13:02;22.60;99.90
25410;DHT22;13339;50.840;4.346;2022-08-01T02:15:30;22.60;99.90
25410;DHT22;13339;50.840;4.346;2022-08-01T02:17:57;22.60;99.90
25410;DHT22;13339;50.840;4.346;2022-08-01T02:20:27;22.60;99.90
25410;DHT22;13339;50.840;4.346;2022-08-01T02:23:06;22.60;99.90
25410;DHT22;13339;50.840;4.346;2022-08-01T02:25:53;22.50;99.90
25410;DHT22;13339;50.840;4.346;2022-08-01T02:28:24;22.50;99.90
25410;DHT22;13339;50.840;4.346;2022-08-01T02:30:54;22.50;99.90
25410;DHT22;13339;50.840;4.346;2022-08-01T02:33:24;22.40;99.90
25410;DHT22;13339;50.840;4.346;2022-08-01T02:35:57;22.40;99.90
25410;DHT22;13339;50.840;4.346;2022-08-01T02:38:25;22.40;99.90
25410;DHT22;13339;50.840;4.346;2022-08-01T02:40:53;22.50;99.90
25410;DHT22;13339;50.840;4.346;2022-08-01T02:43:23;22.50;99.90
25410;DHT22;13339;50.840;4.346;2022-08-01T02:45:53;22.50;99.90
25410;DHT22;13339;50.840;4.346;2022-08-01T02:48:20;22.50;99.90
25410;DHT22;13339;50.840;4.346;2022-08-01T02:50:49;22.40;99.90
25410;DHT22;13339;50.840;4.346;2022-08-01T02:53:19;22.40;99.90
25410;DHT22;13339;50.840;4.346;2022-08-01T02:55:46;22.40;99.90
25410;DHT22;13339;50.840;4.346;2022-08-01T02:58:15;22.40;99.90
25410;DHT22;13339;50.840;4.346;2022-08-01T03:00:43;22.50;99.90
25410;DHT22;13339;50.840;4.346;2022-08-01T03:03:09;22.50;99.90
25410;DHT22;13339;50.840;4.346;2022-08-01T03:05:36;22.60;99.90
25410;DHT22;13339;50.840;4.346;2022-08-01T03:08:02;22.60;99.90
25410;DHT22;13339;50.840;4.346;2022-08-01T03:10:31;22.60;99.90
25410;DHT22;13339;50.840;4.346;2022-08-01T03:12:58;22.50;99.90
25410;DHT22;13339;50.840;4.346;2022-08-01T03:15:26;22.50;99.90
25410;DHT22;13339;50.840;4.346;2022-08-01T03:17:56;22.50;99.90
25410;DHT22;13339;50.840;4.346;2022-08-01T03:20:23;22.40;99.90
25410;DHT22;13339;50.840;4.346;2022-08-01T03:22:50;22.40;99.90
25410;DHT22;13339;50.840;4.346;2022-08-01T03:25:18;22.40;99.90
25410;DHT22;13339;50.840;4.346;2022-08-01T03:27:48;22.40;99.90
25410;DHT22;13339;50.840;4.346;2022-08-01T03:30:15;22.30;99.90
25410;DHT22;13339;50.840;4.346;2022-08-01T03:32:41;22.30;99.90
25410;DHT22;13339;50.840;4.346;2022-08-01T03:35:07;22.30;99.90
25410;DHT22;13339;50.840;4.346;2022-08-01T03:37:40;22.30;99.90
25410;DHT22;13339;50.840;4.346;2022-08-01T03:42:41;22.40;99.90
25410;DHT22;13339;50.840;4.346;2022-08-01T03:45:12;22.40;99.90
25410;DHT22;13339;50.840;4.346;2022-08-01T03:47:43;22.40;99.90
25410;DHT22;13339;50.840;4.346;2022-08-01T03:50:11;22.40;99.90
25410;DHT22;13339;50.840;4.346;2022-08-01T03:52:39;22.30;99.90
25410;DHT22;13339;50.840;4.346;2022-08-01T03:55:07;22.30;99.90
25410;DHT22;13339;50.840;4.346;2022-08-01T03:57:34;22.30;99.90
25410;DHT22;13339;50.840;4.346;2022-08-01T04:00:01;22.10;99.90
25410;DHT22;13339;50.840;4.346;2022-08-01T04:02:27;22.00;99.90
25410;DHT22;13339;50.840;4.346;2022-08-01T04:04:54;22.00;99.90
25410;DHT22;13339;50.840;4.346;2022-08-01T04:07:28;21.80;99.90
25410;DHT22;13339;50.840;4.346;2022-08-01T04:09:53;21.80;99.90
25410;DHT22;13339;50.840;4.346;2022-08-01T04:12:19;21.70;99.90
25410;DHT22;13339;50.840;4.346;2022-08-01T04:14:46;21.80;99.90
25410;DHT22;13339;50.840;4.346;2022-08-01T04:17:12;21.80;99.90
25410;DHT22;13339;50.840;4.346;2022-08-01T04:19:38;21.80;99.90
25410;DHT22;13339;50.840;4.346;2022-08-01T04:22:04;21.80;99.90
25410;DHT22;13339;50.840;4.346;2022-08-01T04:24:31;21.70;99.90
25410;DHT22;13339;50.840;4.346;2022-08-01T04:26:59;21.60;99.90
25410;DHT22;13339;50.840;4.346;2022-08-01T04:29:26;21.80;99.90
25410;DHT22;13339;50.840;4.346;2022-08-01T04:31:56;21.90;99.90
25410;DHT22;13339;50.840;4.346;2022-08-01T04:34:24;22.00;99.90
25410;DHT22;13339;50.840;4.346;2022-08-01T04:36:52;22.00;99.90
25410;DHT22;13339;50.840;4.346;2022-08-01T04:39:20;21.90;99.90
25410;DHT22;13339;50.840;4.346;2022-08-01T04:41:49;21.90;99.90
25410;DHT22;13339;50.840;4.346;2022-08-01T04:44:16;22.00;99.90
25410;DHT22;13339;50.840;4.346;2022-08-01T04:46:42;21.90;99.90
25410;DHT22;13339;50.840;4.346;2022-08-01T04:49:10;21.80;99.90
25410;DHT22;13339;50.840;4.346;2022-08-01T04:51:48;21.80;99.90
25410;DHT22;13339;50.840;4.346;2022-08-01T04:54:14;21.80;99.90
25410;DHT22;13339;50.840;4.346;2022-08-01T04:56:40;21.80;99.90
25410;DHT22;13339;50.840;4.346;2022-08-01T04:59:07;21.90;99.90
25410;DHT22;13339;50.840;4.346;2022-08-01T05:01:50;21.90;99.90
25410;DHT22;13339;50.840;4.346;2022-08-01T05:04:16;21.80;99.90
25410;DHT22;13339;50.840;4.346;2022-08-01T05:06:42;21.80;99.90
25410;DHT22;13339;50.840;4.346;2022-08-01T05:09:08;21.70;99.90
25410;DHT22;13339;50.840;4.346;2022-08-01T05:11:33;21.70;99.90
25410;DHT22;13339;50.840;4.346;2022-08-01T05:13:59;21.70;99.90
25410;DHT22;13339;50.840;4.346;2022-08-01T05:16:24;21.70;99.90
25410;DHT22;13339;50.840;4.346;2022-08-01T05:18:50;21.60;99.90
25410;DHT22;13339;50.840;4.346;2022-08-01T05:21:16;21.60;99.90
25410;DHT22;13339;50.840;4.346;2022-08-01T05:23:42;21.70;99.90
25410;DHT22;13339;50.840;4.346;2022-08-01T05:26:08;21.80;99.90
25410;DHT22;13339;50.840;4.346;2022-08-01T05:28:33;21.90;99.90
25410;DHT22;13339;50.840;4.346;2022-08-01T05:30:59;21.90;99.90
25410;DHT22;13339;50.840;4.346;2022-08-01T05:33:24;21.90;99.90
25410;DHT22;13339;50.840;4.346;2022-08-01T05:35:50;21.60;99.90
25410;DHT22;13339;50.840;4.346;2022-08-01T05:38:16;21.60;99.90
25410;DHT22;13339;50.840;4.346;2022-08-01T05:40:41;21.60;99.90
25410;DHT22;13339;50.840;4.346;2022-08-01T05:43:07;21.70;99.90
25410;DHT22;13339;50.840;4.346;2022-08-01T05:45:33;21.80;99.90
25410;DHT22;13339;50.840;4.346;2022-08-01T05:47:58;21.70;99.90
25410;DHT22;13339;50.840;4.346;2022-08-01T05:50:24;21.70;99.90
25410;DHT22;13339;50.840;4.346;2022-08-01T05:52:49;21.80;99.90
25410;DHT22;13339;50.840;4.346;2022-08-01T05:55:15;21.80;99.90
25410;DHT22;13339;50.840;4.346;2022-08-01T05:57:40;21.80;99.90
25410;DHT22;13339;50.840;4.346;2022-08-01T06:00:07;21.80;99.90
25410;DHT22;13339;50.840;4.346;2022-08-01T06:02:32;21.80;99.90
25410;DHT22;13339;50.840;4.346;2022-08-01T06:04:58;21.80;99.90
25410;DHT22;13339;50.840;4.346;2022-08-01T06:07:24;21.90;99.90
25410;DHT22;13339;50.840;4.346;2022-08-01T06:09:49;22.00;99.90
25410;DHT22;13339;50.840;4.346;2022-08-01T06:12:15;22.00;99.90
25410;DHT22;13339;50.840;4.346;2022-08-01T06:14:40;22.10;99.90
25410;DHT22;13339;50.840;4.346;2022-08-01T06:17:06;22.20;99.90
25410;DHT22;13339;50.840;4.346;2022-08-01T06:19:31;22.20;99.90
25410;DHT22;13339;50.840;4.346;2022-08-01T06:21:57;22.10;99.90
25410;DHT22;13339;50.840;4.346;2022-08-01T06:24:23;22.20;99.90
25410;DHT22;13339;50.840;4.346;2022-08-01T06:26:49;22.10;99.90
25410;DHT22;13339;50.840;4.346;2022-08-01T06:29:15;22.20;99.90
25410;DHT22;13339;50.840;4.346;2022-08-01T06:31:40;22.40;99.90
25410;DHT22;13339;50.840;4.346;2022-08-01T06:34:06;22.40;99.90
25410;DHT22;13339;50.840;4.346;2022-08-01T06:36:31;22.50;99.90
25410;DHT22;13339;50.840;4.346;2022-08-01T06:38:57;22.70;99.90
25410;DHT22;13339;50.840;4.346;2022-08-01T06:41:22;22.80;99.90
25410;DHT22;13339;50.840;4.346;2022-08-01T06:43:48;22.90;99.90
25410;DHT22;13339;50.840;4.346;2022-08-01T06:46:14;23.00;99.90
25410;DHT22;13339;50.840;4.346;2022-08-01T06:48:40;23.00;99.90
25410;DHT22;13339;50.840;4.346;2022-08-01T06:51:05;23.00;99.90
25410;DHT22;13339;50.840;4.346;2022-08-01T06:53:37;23.10;99.90
25410;DHT22;13339;50.840;4.346;2022-08-01T06:56:04;23.00;99.90
25410;DHT22;13339;50.840;4.346;2022-08-01T06:58:29;23.00;99.90
25410;DHT22;13339;50.840;4.346;2022-08-01T07:00:55;23.00;99.90
25410;DHT22;13339;50.840;4.346;2022-08-01T07:03:21;23.00;99.90
25410;DHT22;13339;50.840;4.346;2022-08-01T07:05:46;23.20;99.90
25410;DHT22;13339;50.840;4.346;2022-08-01T07:08:12;23.50;99.90
25410;DHT22;13339;50.840;4.346;2022-08-01T07:10:37;23.70;99.90
25410;DHT22;13339;50.840;4.346;2022-08-01T07:13:03;23.80;99.90
25410;DHT22;13339;50.840;4.346;2022-08-01T07:15:29;24.00;99.90
25410;DHT22;13339;50.840;4.346;2022-08-01T07:17:54;24.00;99.90
25410;DHT22;13339;50.840;4.346;2022-08-01T07:20:20;24.00;99.90
25410;DHT22;13339;50.840;4.346;2022-08-01T07:22:46;23.90;99.90
25410;DHT22;13339;50.840;4.346;2022-08-01T07:25:11;23.70;99.90
25410;DHT22;13339;50.840;4.346;2022-08-01T07:27:37;23.70;99.90
25410;DHT22;13339;50.840;4.346;2022-08-01T07:30:04;23.80;99.90
25410;DHT22;13339;50.840;4.346;2022-08-01T07:32:30;23.80;99.90
25410;DHT22;13339;50.840;4.346;2022-08-01T07:34:56;24.00;99.90
25410;DHT22;13339;50.840;4.346;2022-08-01T07:37:22;24.20;99.90
25410;DHT22;13339;50.840;4.346;2022-08-01T07:39:49;24.40;99.90
25410;DHT22;13339;50.840;4.346;2022-08-01T07:42:14;24.60;99.90
25410;DHT22;13339;50.840;4.346;2022-08-01T07:44:40;24.70;99.90
25410;DHT22;13339;50.840;4.346;2022-08-01T07:47:06;24.70;99.90
25410;DHT22;13339;50.840;4.346;2022-08-01T07:49:31;24.90;99.90
25410;DHT22;13339;50.840;4.346;2022-08-01T07:51:57;24.80;99.90
25410;DHT22;13339;50.840;4.346;2022-08-01T07:54:23;24.90;99.90
25410;DHT22;13339;50.840;4.346;2022-08-01T07:56:53;24.70;99.90
25410;DHT22;13339;50.840;4.346;2022-08-01T07:59:19;24.80;99.90
25410;DHT22;13339;50.840;4.346;2022-08-01T08:01:48;24.90;99.90
25410;DHT22;13339;50.840;4.346;2022-08-01T08:04:15;25.00;99.90
25410;DHT22;13339;50.840;4.346;2022-08-01T08:06:41;25.00;99.90
25410;DHT22;13339;50.840;4.346;2022-08-01T08:09:06;25.00;99.90
25410;DHT22;13339;50.840;4.346;2022-08-01T08:11:32;24.90;99.90
25410;DHT22;13339;50.840;4.346;2022-08-01T08:13:57;24.90;99.90
25410;DHT22;13339;50.840;4.346;2022-08-01T08:16:23;25.10;99.90
25410;DHT22;13339;50.840;4.346;2022-08-01T08:18:48;25.30;99.90
25410;DHT22;13339;50.840;4.346;2022-08-01T08:21:14;25.40;99.90
25410;DHT22;13339;50.840;4.346;2022-08-01T08:23:40;25.20;99.90
25410;DHT22;13339;50.840;4.346;2022-08-01T08:26:24;25.10;99.90
25410;DHT22;13339;50.840;4.346;2022-08-01T08:28:50;25.00;99.90
25410;DHT22;13339;50.840;4.346;2022-08-01T08:31:16;24.80;99.90
25410;DHT22;13339;50.840;4.346;2022-08-01T08:33:41;24.60;99.90
25410;DHT22;13339;50.840;4.346;2022-08-01T08:36:07;24.70;99.90
25410;DHT22;13339;50.840;4.346;2022-08-01T08:38:33;24.40;99.90
25410;DHT22;13339;50.840;4.346;2022-08-01T08:40:59;24.40;99.90
25410;DHT22;13339;50.840;4.346;2022-08-01T08:43:25;24.40;99.90
25410;DHT22;13339;50.840;4.346;2022-08-01T08:45:52;24.40;99.90
25410;DHT22;13339;50.840;4.346;2022-08-01T08:48:18;24.30;99.90
25410;DHT22;13339;50.840;4.346;2022-08-01T08:50:45;24.20;99.90
25410;DHT22;13339;50.840;4.346;2022-08-01T08:53:13;24.00;99.90
25410;DHT22;13339;50.840;4.346;2022-08-01T08:55:42;24.00;99.90
25410;DHT22;13339;50.840;4.346;2022-08-01T08:58:12;24.10;99.90
25410;DHT22;13339;50.840;4.346;2022-08-01T09:00:39;24.10;99.90
25410;DHT22;13339;50.840;4.346;2022-08-01T09:03:05;24.40;99.90
25410;DHT22;13339;50.840;4.346;2022-08-01T09:05:31;24.80;99.90
25410;DHT22;13339;50.840;4.346;2022-08-01T09:07:57;25.10;99.90
25410;DHT22;13339;50.840;4.346;2022-08-01T09:10:22;25.20;99.90
25410;DHT22;13339;50.840;4.346;2022-08-01T09:13:13;25.10;99.90
25410;DHT22;13339;50.840;4.346;2022-08-01T09:15:48;25.10;99.90
25410;DHT22;13339;50.840;4.346;2022-08-01T09:21:09;25.10;99.90
25410;DHT22;13339;50.840;4.346;2022-08-01T09:23:36;25.20;99.90
25410;DHT22;13339;50.840;4.346;2022-08-01T09:26:11;25.20;99.90
25410;DHT22;13339;50.840;4.346;2022-08-01T09:28:38;25.20;99.90
25410;DHT22;13339;50.840;4.346;2022-08-01T09:31:12;25.30;99.90
25410;DHT22;13339;50.840;4.346;2022-08-01T09:33:54;25.50;99.90
25410;DHT22;13339;50.840;4.346;2022-08-01T09:36:22;25.50;99.90
25410;DHT22;13339;50.840;4.346;2022-08-01T09:38:49;25.40;99.90
25410;DHT22;13339;50.840;4.346;2022-08-01T09:41:15;25.20;99.90
25410;DHT22;13339;50.840;4.346;2022-08-01T09:43:48;25.30;99.90
25410;DHT22;13339;50.840;4.346;2022-08-01T09:46:14;25.10;99.90
25410;DHT22;13339;50.840;4.346;2022-08-01T09:49:01;25.20;99.90
25410;DHT22;13339;50.840;4.346;2022-08-01T09:51:36;25.50;99.90
25410;DHT22;13339;50.840;4.346;2022-08-01T09:54:03;25.40;99.90
25410;DHT22;13339;50.840;4.346;2022-08-01T09:56:38;25.10;99.90
25410;DHT22;13339;50.840;4.346;2022-08-01T09:59:05;25.10;99.90
25410;DHT22;13339;50.840;4.346;2022-08-01T10:01:44;25.10;99.90
25410;DHT22;13339;50.840;4.346;2022-08-01T10:06:42;25.10;99.90
25410;DHT22;13339;50.840;4.346;2022-08-01T10:09:10;25.30;99.90
25410;DHT22;13339;50.840;4.346;2022-08-01T10:11:37;25.60;99.90
25410;DHT22;13339;50.840;4.346;2022-08-01T10:14:07;25.90;99.90
25410;DHT22;13339;50.840;4.346;2022-08-01T10:16:37;26.00;99.90
25410;DHT22;13339;50.840;4.346;2022-08-01T10:19:06;26.00;99.90
25410;DHT22;13339;50.840;4.346;2022-08-01T10:21:33;26.00;99.90
25410;DHT22;13339;50.840;4.346;2022-08-01T10:24:01;26.20;99.90
25410;DHT22;13339;50.840;4.346;2022-08-01T10:26:29;26.30;99.90
25410;DHT22;13339;50.840;4.346;2022-08-01T10:28:57;26.30;99.90
25410;DHT22;13339;50.840;4.346;2022-08-01T10:31:23;26.10;99.90
25410;DHT22;13339;50.840;4.346;2022-08-01T10:33:50;26.20;99.90
25410;DHT22;13339;50.840;4.346;2022-08-01T10:36:20;26.40;99.90
25410;DHT22;13339;50.840;4.346;2022-08-01T10:38:46;26.60;99.90
25410;DHT22;13339;50.840;4.346;2022-08-01T10:41:13;26.60;99.90
25410;DHT22;13339;50.840;4.346;2022-08-01T10:43:40;26.60;99.90
25410;DHT22;13339;50.840;4.346;2022-08-01T10:46:06;26.90;99.90
25410;DHT22;13339;50.840;4.346;2022-08-01T10:51:22;27.20;99.90
25410;DHT22;13339;50.840;4.346;2022-08-01T10:53:53;27.00;99.90
25410;DHT22;13339;50.840;4.346;2022-08-01T10:56:21;27.00;99.90
25410;DHT22;13339;50.840;4.346;2022-08-01T10:58:48;27.20;99.90
25410;DHT22;13339;50.840;4.346;2022-08-01T11:03:40;27.30;99.90
25410;DHT22;13339;50.840;4.346;2022-08-01T11:06:06;27.50;99.90
25410;DHT22;13339;50.840;4.346;2022-08-01T11:08:36;27.60;99.90
25410;DHT22;13339;50.840;4.346;2022-08-01T11:11:03;27.40;99.90
25410;DHT22;13339;50.840;4.346;2022-08-01T11:16:28;27.30;99.90
25410;DHT22;13339;50.840;4.346;2022-08-01T11:18:54;27.60;99.90
25410;DHT22;13339;50.840;4.346;2022-08-01T11:21:20;27.40;99.90
25410;DHT22;13339;50.840;4.346;2022-08-01T11:23:50;27.30;99.90
25410;DHT22;13339;50.840;4.346;2022-08-01T11:26:19;27.20;99.90
25410;DHT22;13339;50.840;4.346;2022-08-01T11:29:13;27.10;99.90
25410;DHT22;13339;50.840;4.346;2022-08-01T11:31:39;27.00;99.90
25410;DHT22;13339;50.840;4.346;2022-08-01T11:34:05;27.10;99.90
25410;DHT22;13339;50.840;4.346;2022-08-01T11:36:30;27.10;99.90
25410;DHT22;13339;50.840;4.346;2022-08-01T11:41:29;27.20;99.90
25410;DHT22;13339;50.840;4.346;2022-08-01T11:46:46;27.50;99.90
25410;DHT22;13339;50.840;4.346;2022-08-01T11:52:30;27.50;99.90
25410;DHT22;13339;50.840;4.346;2022-08-01T11:57:28;27.60;99.90
25410;DHT22;13339;50.840;4.346;2022-08-01T11:59:59;27.60;99.90
25410;DHT22;13339;50.840;4.346;2022-08-01T12:02:29;27.70;99.90
25410;DHT22;13339;50.840;4.346;2022-08-01T12:07:23;27.60;99.90
25410;DHT22;13339;50.840;4.346;2022-08-01T12:10:02;27.20;99.90
25410;DHT22;13339;50.840;4.346;2022-08-01T12:12:30;27.20;99.90
25410;DHT22;13339;50.840;4.346;2022-08-01T12:14:58;27.30;99.90
25410;DHT22;13339;50.840;4.346;2022-08-01T12:17:29;27.50;99.90
25410;DHT22;13339;50.840;4.346;2022-08-01T12:19:54;27.60;99.90
25410;DHT22;13339;50.840;4.346;2022-08-01T12:22:22;27.90;99.90
25410;DHT22;13339;50.840;4.346;2022-08-01T12:24:48;28.00;99.90
25410;DHT22;13339;50.840;4.346;2022-08-01T12:27:24;28.10;99.90
25410;DHT22;13339;50.840;4.346;2022-08-01T12:29:50;27.90;99.90
25410;DHT22;13339;50.840;4.346;2022-08-01T12:32:27;27.70;99.90
25410;DHT22;13339;50.840;4.346;2022-08-01T12:34:55;27.80;99.90
25410;DHT22;13339;50.840;4.346;2022-08-01T12:37:23;28.20;99.90
25410;DHT22;13339;50.840;4.346;2022-08-01T12:39:49;28.60;99.90
25410;DHT22;13339;50.840;4.346;2022-08-01T12:42:14;28.80;99.90
25410;DHT22;13339;50.840;4.346;2022-08-01T12:44:43;28.90;99.90
25410;DHT22;13339;50.840;4.346;2022-08-01T12:47:10;29.00;99.90
25410;DHT22;13339;50.840;4.346;2022-08-01T12:49:37;29.20;99.90
25410;DHT22;13339;50.840;4.346;2022-08-01T12:52:04;29.20;99.90
25410;DHT22;13339;50.840;4.346;2022-08-01T12:54:30;29.30;99.90
25410;DHT22;13339;50.840;4.346;2022-08-01T12:56:55;29.10;99.90
25410;DHT22;13339;50.840;4.346;2022-08-01T12:59:24;28.80;99.90
25410;DHT22;13339;50.840;4.346;2022-08-01T13:01:54;28.80;99.90
25410;DHT22;13339;50.840;4.346;2022-08-01T13:04:21;28.90;99.90
25410;DHT22;13339;50.840;4.346;2022-08-01T13:06:47;28.90;99.90
25410;DHT22;13339;50.840;4.346;2022-08-01T13:09:13;28.90;99.90
25410;DHT22;13339;50.840;4.346;2022-08-01T13:11:40;28.80;99.90
25410;DHT22;13339;50.840;4.346;2022-08-01T13:14:06;28.80;99.90
25410;DHT22;13339;50.840;4.346;2022-08-01T13:16:32;28.50;99.90
25410;DHT22;13339;50.840;4.346;2022-08-01T13:19:10;28.00;99.90
25410;DHT22;13339;50.840;4.346;2022-08-01T13:21:35;28.00;99.90
25410;DHT22;13339;50.840;4.346;2022-08-01T13:24:12;28.00;99.90
25410;DHT22;13339;50.840;4.346;2022-08-01T13:26:46;28.20;99.90
25410;DHT22;13339;50.840;4.346;2022-08-01T13:29:17;28.20;99.90
25410;DHT22;13339;50.840;4.346;2022-08-01T13:31:43;28.30;99.90
25410;DHT22;13339;50.840;4.346;2022-08-01T13:34:09;28.00;99.90
25410;DHT22;13339;50.840;4.346;2022-08-01T13:36:36;27.80;99.90
25410;DHT22;13339;50.840;4.346;2022-08-01T13:39:02;27.60;99.90
25410;DHT22;13339;50.840;4.346;2022-08-01T13:41:47;27.40;99.90
25410;DHT22;13339;50.840;4.346;2022-08-01T13:44:13;27.50;99.90
25410;DHT22;13339;50.840;4.346;2022-08-01T13:46:39;27.60;99.90
25410;DHT22;13339;50.840;4.346;2022-08-01T13:49:06;27.60;99.90
25410;DHT22;13339;50.840;4.346;2022-08-01T13:51:33;27.60;99.90
25410;DHT22;13339;50.840;4.346;2022-08-01T13:53:59;27.60;99.90
25410;DHT22;13339;50.840;4.346;2022-08-01T13:56:24;27.70;99.90
25410;DHT22;13339;50.840;4.346;2022-08-01T13:58:52;27.70;99.90
25410;DHT22;13339;50.840;4.346;2022-08-01T14:01:17;27.90;99.90
25410;DHT22;13339;50.840;4.346;2022-08-01T14:03:43;28.00;99.90
25410;DHT22;13339;50.840;4.346;2022-08-01T14:06:09;28.10;99.90
25410;DHT22;13339;50.840;4.346;2022-08-01T14:08:34;27.90;99.90
25410;DHT22;13339;50.840;4.346;2022-08-01T14:11:00;27.70;99.90
25410;DHT22;13339;50.840;4.346;2022-08-01T14:13:27;27.70;99.90
25410;DHT22;13339;50.840;4.346;2022-08-01T14:15:53;27.90;99.90
25410;DHT22;13339;50.840;4.346;2022-08-01T14:18:19;27.90;99.90
25410;DHT22;13339;50.840;4.346;2022-08-01T14:20:45;27.70;99.90
25410;DHT22;13339;50.840;4.346;2022-08-01T14:23:10;27.50;99.90
25410;DHT22;13339;50.840;4.346;2022-08-01T14:25:40;27.20;99.90
25410;DHT22;13339;50.840;4.346;2022-08-01T14:28:09;27.30;99.90
25410;DHT22;13339;50.840;4.346;2022-08-01T14:30:36;27.60;99.90
25410;DHT22;13339;50.840;4.346;2022-08-01T14:33:02;27.80;99.80
25410;DHT22;13339;50.840;4.346;2022-08-01T14:35:28;28.00;99.50
25410;DHT22;13339;50.840;4.346;2022-08-01T14:37:53;28.00;99.50
25410;DHT22;13339;50.840;4.346;2022-08-01T14:40:19;28.00;99.50
25410;DHT22;13339;50.840;4.346;2022-08-01T14:42:45;28.00;99.40
25410;DHT22;13339;50.840;4.346;2022-08-01T14:45:11;27.90;99.80
25410;DHT22;13339;50.840;4.346;2022-08-01T14:47:39;27.70;99.90
25410;DHT22;13339;50.840;4.346;2022-08-01T14:50:07;27.80;99.90
25410;DHT22;13339;50.840;4.346;2022-08-01T14:52:34;27.90;99.50
25410;DHT22;13339;50.840;4.346;2022-08-01T14:54:59;27.80;99.50
25410;DHT22;13339;50.840;4.346;2022-08-01T14:57:25;27.80;99.60
25410;DHT22;13339;50.840;4.346;2022-08-01T14:59:51;27.90;99.30
25410;DHT22;13339;50.840;4.346;2022-08-01T15:02:17;27.60;99.30
25410;DHT22;13339;50.840;4.346;2022-08-01T15:04:47;27.50;99.80
25410;DHT22;13339;50.840;4.346;2022-08-01T15:07:13;27.60;99.80
25410;DHT22;13339;50.840;4.346;2022-08-01T15:09:39;27.40;99.70
25410;DHT22;13339;50.840;4.346;2022-08-01T15:12:06;27.50;99.60
25410;DHT22;13339;50.840;4.346;2022-08-01T15:14:31;27.50;99.90
25410;DHT22;13339;50.840;4.346;2022-08-01T15:17:20;27.60;99.80
25410;DHT22;13339;50.840;4.346;2022-08-01T15:19:48;27.70;99.60
25410;DHT22;13339;50.840;4.346;2022-08-01T15:22:14;27.70;99.40
25410;DHT22;13339;50.840;4.346;2022-08-01T15:24:40;27.90;99.10
25410;DHT22;13339;50.840;4.346;2022-08-01T15:27:06;27.80;99.00
25410;DHT22;13339;50.840;4.346;2022-08-01T15:29:32;27.90;98.80
25410;DHT22;13339;50.840;4.346;2022-08-01T15:31:58;27.70;98.80
25410;DHT22;13339;50.840;4.346;2022-08-01T15:34:24;27.50;99.10
25410;DHT22;13339;50.840;4.346;2022-08-01T15:36:50;27.50;98.50
25410;DHT22;13339;50.840;4.346;2022-08-01T15:39:16;27.60;98.60
25410;DHT22;13339;50.840;4.346;2022-08-01T15:41:42;27.60;98.80
25410;DHT22;13339;50.840;4.346;2022-08-01T15:44:07;27.60;98.90
25410;DHT22;13339;50.840;4.346;2022-08-01T15:46:33;27.60;99.00
25410;DHT22;13339;50.840;4.346;2022-08-01T15:49:03;27.70;99.00
25410;DHT22;13339;50.840;4.346;2022-08-01T15:51:29;27.90;98.70
25410;DHT22;13339;50.840;4.346;2022-08-01T15:53:55;27.90;98.60
25410;DHT22;13339;50.840;4.346;2022-08-01T15:56:21;27.70;98.60
25410;DHT22;13339;50.840;4.346;2022-08-01T15:58:46;27.50;98.80
25410;DHT22;13339;50.840;4.346;2022-08-01T16:01:12;27.20;98.80
25410;DHT22;13339;50.840;4.346;2022-08-01T16:03:37;27.00;99.20
25410;DHT22;13339;50.840;4.346;2022-08-01T16:06:03;27.00;99.20
25410;DHT22;13339;50.840;4.346;2022-08-01T16:08:29;26.90;99.30
25410;DHT22;13339;50.840;4.346;2022-08-01T16:10:54;26.90;99.10
25410;DHT22;13339;50.840;4.346;2022-08-01T16:13:20;27.00;99.10
25410;DHT22;13339;50.840;4.346;2022-08-01T16:15:46;27.00;99.20